Time;durP1;ratioP1;P1;durP2;ratioP2;P2;SDS_P1;SDS_P2;PMS_P1;PMS_P2;Temp;Humidity;BMP_temperature;BMP_pressure;BME280_temperature;BME280_humidity;BME280_pressure;Samples;Min_cycle;Max_cycle;Signal;HPM_P1;HPM_P2
2021/09/18 00:00:13;;;;;;;5.17;2.25;;;;;;;18.51;81.70;98501.45;1721123;81;21033;-53
2021/09/18 00:02:39;;;;;;;8.70;2.98;;;;;;;18.49;81.76;98498.87;1694037;83;20841;-56
2021/09/18 00:05:06;;;;;;;3.85;2.80;;;;;;;18.48;81.75;98496.30;1699014;83;20899;-55
2021/09/18 00:07:33;;;;;;;5.20;2.95;;;;;;;18.46;81.79;98494.22;1695805;83;20935;-56
2021/09/18 00:09:59;;;;;;;3.40;2.62;;;;;;;18.46;81.87;98490.14;1695306;82;21846;-54
2021/09/18 00:12:25;;;;;;;7.83;2.58;;;;;;;18.44;81.87;98492.18;1693107;83;20955;-55
2021/09/18 00:14:51;;;;;;;3.75;2.27;;;;;;;18.42;81.97;98492.84;1695108;83;20958;-53
2021/09/18 00:17:18;;;;;;;4.35;2.30;;;;;;;18.40;82.03;98481.22;1698156;83;20991;-56
2021/09/18 00:19:45;;;;;;;5.22;3.35;;;;;;;18.40;82.16;98490.76;1696350;83;20911;-56
2021/09/18 00:22:12;;;;;;;4.70;3.50;;;;;;;18.40;82.26;98492.13;1696592;83;21097;-56
2021/09/18 00:24:39;;;;;;;2.92;2.65;;;;;;;18.41;82.30;98487.89;1697719;83;20935;-53
2021/09/18 00:27:06;;;;;;;5.03;2.87;;;;;;;18.42;82.32;98481.44;1695689;83;20983;-53
2021/09/18 00:29:32;;;;;;;4.55;2.35;;;;;;;18.42;82.28;98478.70;1695449;83;20943;-54
2021/09/18 00:31:59;;;;;;;5.00;2.70;;;;;;;18.40;82.30;98482.08;1694819;83;20911;-54
2021/09/18 00:34:25;;;;;;;6.90;3.12;;;;;;;18.40;82.43;98485.31;1690714;83;21137;-54
2021/09/18 00:36:53;;;;;;;5.78;2.87;;;;;;;18.40;82.41;98481.22;1690591;83;21082;-54
2021/09/18 00:39:21;;;;;;;6.83;2.75;;;;;;;18.36;82.48;98472.52;1689886;83;21109;-54
2021/09/18 00:41:48;;;;;;;4.65;2.62;;;;;;;18.35;82.58;98467.22;1693635;83;21115;-54
2021/09/18 00:44:18;;;;;;;5.17;3.25;;;;;;;18.35;82.69;98474.03;1633171;85;21143;-56
2021/09/18 00:46:54;;;;;;;4.30;2.90;;;;;;;18.32;82.73;98466.16;1689106;82;21770;-56
2021/09/18 00:49:18;;;;;;;6.42;2.85;;;;;;;18.32;82.89;98467.52;1693492;83;20991;-54
2021/09/18 00:51:46;;;;;;;4.12;3.72;;;;;;;18.34;82.93;98465.00;1692133;83;21185;-52
2021/09/18 00:54:14;;;;;;;5.47;3.12;;;;;;;18.34;82.93;98465.00;1691244;82;20971;-54
2021/09/18 00:56:42;;;;;;;10.15;3.77;;;;;;;18.33;82.98;98454.25;1696923;83;20895;-53
2021/09/18 00:59:10;;;;;;;6.28;3.33;;;;;;;18.33;83.12;98455.11;1695527;83;21561;-55
2021/09/18 01:01:37;;;;;;;8.55;3.80;;;;;;;18.34;83.14;98454.11;1695442;83;21434;-56
2021/09/18 01:04:05;;;;;;;5.67;3.02;;;;;;;18.34;83.19;98455.47;1696084;83;20911;-56
2021/09/18 01:06:31;;;;;;;4.97;4.40;;;;;;;18.35;83.24;98453.09;1696447;83;20975;-53
2021/09/18 01:08:59;;;;;;;7.15;3.72;;;;;;;18.35;83.26;98444.06;1730064;81;20883;-54
2021/09/18 01:11:28;;;;;;;4.22;3.72;;;;;;;18.34;83.30;98440.48;1730206;81;21053;-53
2021/09/18 01:13:54;;;;;;;4.45;2.58;;;;;;;18.34;83.38;98436.91;1734585;81;21653;-56
2021/09/18 01:16:23;;;;;;;7.60;3.77;;;;;;;18.33;83.45;98431.95;1735431;81;20969;-53
2021/09/18 01:18:49;;;;;;;3.62;3.02;;;;;;;18.34;83.45;98428.23;1730036;81;21050;-56
2021/09/18 01:21:18;;;;;;;4.42;3.72;;;;;;;18.35;83.50;98427.72;1727189;81;21086;-55
2021/09/18 01:23:45;;;;;;;6.95;4.17;;;;;;;18.35;83.57;98419.55;1726944;81;21168;-55
2021/09/18 01:26:12;;;;;;;4.67;2.95;;;;;;;18.36;83.69;98419.91;1728576;81;21038;-54
2021/09/18 01:28:39;;;;;;;4.50;3.33;;;;;;;18.38;83.65;98419.22;1730511;81;21098;-54
2021/09/18 01:31:08;;;;;;;5.78;4.42;;;;;;;18.38;83.70;98421.94;1730297;81;21061;-54
2021/09/18 01:33:36;;;;;;;4.67;3.92;;;;;;;18.37;83.74;98417.00;1733628;81;21770;-54
2021/09/18 01:36:03;;;;;;;4.55;4.12;;;;;;;18.37;83.78;98414.27;1727726;81;21665;-54
2021/09/18 01:38:30;;;;;;;9.58;4.95;;;;;;;18.37;83.79;98414.27;1729441;81;21035;-53
2021/09/18 01:40:56;;;;;;;11.70;4.42;;;;;;;18.37;83.87;98404.73;1727574;81;21079;-55
2021/09/18 01:43:26;;;;;;;6.50;4.72;;;;;;;18.36;83.96;98407.14;1727753;81;21109;-54
2021/09/18 01:45:52;;;;;;;5.62;4.40;;;;;;;18.37;84.01;98407.47;1729353;81;21569;-54
2021/09/18 01:48:18;;;;;;;5.35;4.03;;;;;;;18.38;84.10;98409.69;1728142;81;21225;-56
2021/09/18 01:50:51;;;;;;;6.00;5.37;;;;;;;18.37;84.14;98403.38;1730535;81;21013;-55
2021/09/18 01:53:21;;;;;;;8.05;4.28;;;;;;;18.37;84.15;98404.73;1726772;81;21164;-55
2021/09/18 01:55:51;;;;;;;5.37;4.90;;;;;;;18.37;84.23;98397.93;1728788;82;21068;-54
2021/09/18 01:58:18;;;;;;;8.63;5.12;;;;;;;18.39;84.26;98391.83;1732444;81;20875;-54
2021/09/18 02:00:48;;;;;;;7.70;4.33;;;;;;;18.40;84.33;98392.18;1732211;81;21377;-55
2021/09/18 02:03:15;;;;;;;5.15;4.53;;;;;;;18.41;84.31;98395.26;1721489;82;21484;-56
2021/09/18 02:05:42;;;;;;;5.25;4.72;;;;;;;18.42;84.35;98393.39;1719657;81;21030;-56
2021/09/18 02:08:08;;;;;;;7.15;4.45;;;;;;;18.42;84.38;98389.31;1718449;81;21569;-55
2021/09/18 02:10:35;;;;;;;7.50;4.60;;;;;;;18.43;84.37;98381.48;1721095;81;21093;-56
2021/09/18 02:13:06;;;;;;;7.20;4.42;;;;;;;18.44;84.39;98383.20;1721164;81;20959;-55
2021/09/18 02:15:32;;;;;;;7.35;3.72;;;;;;;18.44;84.44;98382.70;1722741;81;20919;-56
2021/09/18 02:18:00;;;;;;;10.63;4.80;;;;;;;18.44;84.45;98377.25;1719587;81;21074;-55
2021/09/18 02:20:29;;;;;;;8.03;5.12;;;;;;;18.46;84.48;98380.65;1718751;81;21129;-56
2021/09/18 02:22:57;;;;;;;5.67;5.17;;;;;;;18.46;84.46;98371.62;1719349;82;21382;-55
2021/09/18 02:25:25;;;;;;;8.83;4.50;;;;;;;18.46;84.49;98372.48;1717545;81;21153;-56
2021/09/18 02:27:53;;;;;;;9.90;4.97;;;;;;;18.46;84.55;98367.02;1721955;82;20928;-55
2021/09/18 02:30:22;;;;;;;6.55;5.83;;;;;;;18.47;84.53;98380.14;1720304;82;21058;-54
2021/09/18 02:32:48;;;;;;;8.03;4.53;;;;;;;18.47;84.62;98374.70;1720071;81;21097;-56
2021/09/18 02:35:18;;;;;;;6.35;4.80;;;;;;;18.49;84.71;98369.95;1718972;81;21109;-56
2021/09/18 02:37:45;;;;;;;8.25;5.62;;;;;;;18.52;84.68;98369.65;1723068;82;22113;-56
2021/09/18 02:40:14;;;;;;;9.38;5.90;;;;;;;18.52;84.61;98369.14;1721842;81;21152;-56
2021/09/18 02:42:44;;;;;;;7.42;5.22;;;;;;;18.53;84.64;98368.64;1718558;81;21043;-57
2021/09/18 02:45:10;;;;;;;6.58;5.33;;;;;;;18.52;84.69;98360.97;1638537;85;21098;-56
2021/09/18 02:47:37;;;;;;;7.95;5.58;;;;;;;18.54;84.63;98366.27;1678843;84;20915;-57
2021/09/18 02:50:05;;;;;;;8.95;5.30;;;;;;;18.54;84.67;98360.82;1723134;82;21080;-56
2021/09/18 02:52:31;;;;;;;8.68;5.60;;;;;;;18.55;84.70;98365.23;1719512;82;20906;-56
2021/09/18 02:54:58;;;;;;;5.62;5.22;;;;;;;18.57;84.67;98361.87;1721545;82;20908;-56
2021/09/18 02:57:24;;;;;;;7.12;5.20;;;;;;;18.57;84.65;98365.97;1722943;81;20954;-55
2021/09/18 02:59:52;;;;;;;8.18;5.33;;;;;;;18.59;84.73;98363.95;1722596;82;20911;-56
2021/09/18 03:02:19;;;;;;;8.33;6.20;;;;;;;18.62;84.68;98369.09;1723525;82;21118;-56
2021/09/18 03:04:45;;;;;;;7.45;5.80;;;;;;;18.62;84.72;98360.92;1724547;81;20903;-55
2021/09/18 03:07:11;;;;;;;9.65;5.55;;;;;;;18.64;84.65;98357.50;1722709;82;20967;-56
2021/09/18 03:09:39;;;;;;;5.60;5.20;;;;;;;18.66;84.65;98355.98;1726191;82;20939;-56
2021/09/18 03:12:06;;;;;;;8.30;6.05;;;;;;;18.67;84.66;98353.11;1723081;82;21333;-55
2021/09/18 03:14:32;;;;;;;7.72;5.72;;;;;;;18.69;84.62;98348.87;1722182;82;21172;-55
2021/09/18 03:16:59;;;;;;;6.37;5.87;;;;;;;18.72;84.51;98352.11;1724934;82;20927;-56
2021/09/18 03:19:27;;;;;;;13.45;5.55;;;;;;;18.72;84.44;98353.98;1724126;82;20986;-56
2021/09/18 03:21:53;;;;;;;9.98;5.67;;;;;;;18.71;84.40;98343.62;1723374;82;20987;-56
2021/09/18 03:24:21;;;;;;;5.85;5.33;;;;;;;18.72;84.39;98343.08;1724512;82;21007;-56
2021/09/18 03:26:47;;;;;;;5.67;5.22;;;;;;;18.72;84.29;98340.35;1665386;83;21103;-56
2021/09/18 03:29:15;;;;;;;6.22;5.42;;;;;;;18.70;84.35;98343.27;1724032;81;20959;-57
2021/09/18 03:31:43;;;;;;;6.42;5.47;;;;;;;18.71;84.32;98336.80;1723842;81;21357;-57
2021/09/18 03:34:10;;;;;;;8.03;5.40;;;;;;;18.72;84.29;98333.03;1725531;82;21567;-55
2021/09/18 03:36:36;;;;;;;8.53;6.75;;;;;;;18.72;84.23;98334.90;1717654;82;21816;-56
2021/09/18 03:39:04;;;;;;;5.35;5.05;;;;;;;18.73;84.15;98332.53;1660170;83;21517;-56
2021/09/18 03:41:32;;;;;;;8.90;5.75;;;;;;;18.71;84.15;98324.53;1726816;82;20991;-55
2021/09/18 03:43:59;;;;;;;7.78;5.50;;;;;;;18.71;84.13;98328.62;1666122;83;22274;-57
2021/09/18 03:46:26;;;;;;;9.45;6.20;;;;;;;18.70;84.03;98325.55;1721483;82;20939;-57
2021/09/18 03:48:54;;;;;;;8.45;5.80;;;;;;;18.69;84.01;98331.16;1719626;82;21375;-56
2021/09/18 03:51:22;;;;;;;7.58;5.20;;;;;;;18.67;83.95;98329.09;1722476;82;21069;-56
2021/09/18 03:53:49;;;;;;;6.80;5.92;;;;;;;18.66;83.95;98328.73;1720865;82;21038;-57
2021/09/18 03:56:16;;;;;;;5.78;5.25;;;;;;;18.65;83.97;98331.97;1718664;82;21168;-57
2021/09/18 03:58:44;;;;;;;9.98;5.55;;;;;;;18.66;84.06;98325.50;1667501;83;21123;-56
2021/09/18 04:01:10;;;;;;;7.00;6.12;;;;;;;18.69;83.99;98316.16;1722706;82;21094;-57
2021/09/18 04:03:36;;;;;;;6.17;5.35;;;;;;;18.69;83.93;98321.11;1723390;81;21583;-56
2021/09/18 04:06:03;;;;;;;6.62;5.97;;;;;;;18.71;83.83;98324.53;1719510;82;21050;-57
2021/09/18 04:08:32;;;;;;;8.58;5.05;;;;;;;18.70;83.74;98321.45;1719290;82;21137;-55
2021/09/18 04:11:00;;;;;;;5.85;5.15;;;;;;;18.70;83.71;98320.09;1719877;82;21062;-57
2021/09/18 04:13:27;;;;;;;7.70;5.55;;;;;;;18.70;83.62;98319.23;1721317;82;21105;-56
2021/09/18 04:15:54;;;;;;;10.28;5.58;;;;;;;18.70;83.56;98323.33;1721767;81;21221;-56
2021/09/18 04:18:22;;;;;;;6.25;5.62;;;;;;;18.68;83.58;98311.22;1721235;82;21046;-57
2021/09/18 04:20:50;;;;;;;9.08;6.90;;;;;;;18.68;83.62;98315.30;1722637;82;21548;-56
2021/09/18 04:23:18;;;;;;;9.73;7.20;;;;;;;18.68;83.49;98312.58;1724437;82;21579;-57
2021/09/18 04:25:45;;;;;;;10.00;7.53;;;;;;;18.67;83.50;98308.64;1697762;82;21434;-57
2021/09/18 04:28:13;;;;;;;11.43;7.45;;;;;;;18.65;83.46;98310.16;1721260;82;22233;-56
2021/09/18 04:30:40;;;;;;;7.08;6.47;;;;;;;18.64;83.42;98313.04;1725713;82;21062;-57
2021/09/18 04:33:06;;;;;;;13.50;7.65;;;;;;;18.62;83.42;98317.82;1724196;82;21060;-57
2021/09/18 04:35:33;;;;;;;7.92;7.17;;;;;;;18.59;83.49;98310.81;1719185;82;21089;-56
2021/09/18 04:37:59;;;;;;;7.75;6.72;;;;;;;18.59;83.51;98311.31;1720763;82;21098;-56
2021/09/18 04:40:26;;;;;;;5.53;5.12;;;;;;;18.57;83.57;98312.83;1721748;82;22358;-56
2021/09/18 04:42:53;;;;;;;7.35;6.00;;;;;;;18.58;83.66;98309.59;1720680;82;21312;-57
2021/09/18 04:45:19;;;;;;;7.33;6.67;;;;;;;18.58;83.68;98313.19;1722585;82;21262;-57
2021/09/18 04:47:46;;;;;;;6.78;6.17;;;;;;;18.59;83.70;98309.45;1723578;82;21606;-57
2021/09/18 04:50:13;;;;;;;8.10;6.45;;;;;;;18.61;83.74;98309.30;1720027;82;21535;-55
2021/09/18 04:52:39;;;;;;;8.38;7.12;;;;;;;18.63;83.79;98303.19;1719790;82;21400;-55
2021/09/18 04:55:08;;;;;;;8.03;5.75;;;;;;;18.66;83.81;98306.93;1719607;82;21372;-55
2021/09/18 04:57:34;;;;;;;11.22;7.00;;;;;;;18.67;83.76;98310.01;1653457;84;21338;-56
2021/09/18 05:00:01;;;;;;;7.87;6.53;;;;;;;18.68;83.75;98312.58;1674511;84;22368;-56
2021/09/18 05:02:27;;;;;;;8.18;6.10;;;;;;;18.69;83.77;98309.34;1669348;84;21423;-56
2021/09/18 05:04:53;;;;;;;6.75;6.05;;;;;;;18.71;83.83;98312.78;1660566;84;21113;-55
2021/09/18 05:07:20;;;;;;;10.18;6.53;;;;;;;18.73;83.74;98312.94;1659780;84;21151;-56
2021/09/18 05:09:46;;;;;;;7.08;6.22;;;;;;;18.75;83.68;98314.15;1657596;83;21104;-57
2021/09/18 05:12:14;;;;;;;10.85;6.12;;;;;;;18.75;83.68;98312.28;1686681;82;21427;-55
2021/09/18 05:14:40;;;;;;;6.87;6.28;;;;;;;18.78;83.59;98316.06;1691835;82;21488;-57
2021/09/18 05:17:08;;;;;;;7.12;6.20;;;;;;;18.78;83.52;98307.88;1684735;82;21070;-55
2021/09/18 05:19:35;;;;;;;7.25;5.70;;;;;;;18.78;83.53;98298.85;1683718;82;21061;-56
2021/09/18 05:22:03;;;;;;;11.18;6.70;;;;;;;18.79;83.50;98308.23;1685953;82;21085;-56
2021/09/18 05:24:30;;;;;;;6.92;6.22;;;;;;;18.81;83.48;98303.95;1685470;82;21054;-56
2021/09/18 05:26:58;;;;;;;7.58;6.58;;;;;;;18.83;83.48;98301.43;1686171;82;21039;-55
2021/09/18 05:29:24;;;;;;;9.43;6.20;;;;;;;18.85;83.37;98298.55;1686268;82;21205;-56
2021/09/18 05:31:52;;;;;;;7.53;5.30;;;;;;;18.87;83.38;98302.83;1689851;82;20860;-56
2021/09/18 05:34:18;;;;;;;7.67;5.97;;;;;;;18.92;83.33;98300.12;1690290;82;20927;-56
2021/09/18 05:36:44;;;;;;;11.53;6.33;;;;;;;18.97;83.22;98299.14;1690126;82;20959;-57
2021/09/18 05:39:11;;;;;;;7.47;6.25;;;;;;;18.99;83.05;98300.66;1686673;82;21646;-55
2021/09/18 05:41:38;;;;;;;6.72;6.10;;;;;;;19.02;82.95;98301.72;1690318;82;21071;-55
2021/09/18 05:44:04;;;;;;;6.22;5.47;;;;;;;19.05;82.83;98301.91;1689803;82;20970;-57
2021/09/18 05:46:31;;;;;;;7.25;6.53;;;;;;;19.06;82.69;98300.87;1690110;82;20991;-56
2021/09/18 05:48:57;;;;;;;8.48;6.67;;;;;;;19.06;82.57;98305.81;1689036;82;20978;-55
2021/09/18 05:51:24;;;;;;;9.25;5.85;;;;;;;19.09;82.54;98305.50;1688842;82;21022;-56
2021/09/18 05:53:51;;;;;;;6.60;5.92;;;;;;;19.12;82.37;98299.73;1691345;82;21106;-56
2021/09/18 05:56:17;;;;;;;9.10;6.55;;;;;;;19.13;82.29;98304.17;1689919;82;20987;-57
2021/09/18 05:58:45;;;;;;;9.48;6.10;;;;;;;19.16;82.15;98304.33;1689006;82;20926;-56
2021/09/18 06:01:11;;;;;;;8.90;6.72;;;;;;;19.19;82.13;98304.02;1688940;82;20942;-55
2021/09/18 06:03:38;;;;;;;9.95;7.08;;;;;;;19.23;81.98;98305.39;1715083;81;20942;-56
2021/09/18 06:06:04;;;;;;;8.90;7.35;;;;;;;19.25;81.79;98311.03;1723365;81;21479;-56
2021/09/18 06:08:30;;;;;;;9.58;7.75;;;;;;;19.30;81.49;98311.06;1723156;81;21509;-56
2021/09/18 06:10:56;;;;;;;12.90;7.55;;;;;;;19.32;81.23;98309.86;1723011;81;20919;-56
2021/09/18 06:13:24;;;;;;;9.30;7.12;;;;;;;19.35;81.03;98306.81;1720533;81;20915;-56
2021/09/18 06:15:50;;;;;;;10.00;7.53;;;;;;;19.37;80.79;98306.16;1724955;81;21085;-57
2021/09/18 06:18:18;;;;;;;8.15;6.80;;;;;;;19.38;80.61;98308.37;1723951;82;20919;-55
2021/09/18 06:20:44;;;;;;;6.92;5.70;;;;;;;19.38;80.52;98311.95;1725147;81;20947;-56
2021/09/18 06:23:12;;;;;;;8.75;6.00;;;;;;;19.42;80.34;98311.10;1721066;82;20967;-56
2021/09/18 06:25:38;;;;;;;11.12;7.47;;;;;;;19.44;80.09;98317.26;1720897;81;21110;-55
2021/09/18 06:28:04;;;;;;;13.58;6.45;;;;;;;19.44;79.95;98314.02;1719582;81;21058;-55
2021/09/18 06:30:32;;;;;;;7.15;6.58;;;;;;;19.45;79.67;98322.55;1722377;82;21061;-56
2021/09/18 06:32:59;;;;;;;5.78;5.28;;;;;;;19.45;79.48;98322.55;1719857;81;21399;-56
2021/09/18 06:35:27;;;;;;;7.60;6.87;;;;;;;19.46;79.19;98324.27;1718918;81;21419;-55
2021/09/18 06:37:53;;;;;;;6.92;6.42;;;;;;;19.47;78.89;98318.30;1718798;82;21137;-55
2021/09/18 06:40:20;;;;;;;10.88;7.72;;;;;;;19.49;78.61;98323.09;1718955;82;21765;-56
2021/09/18 06:42:46;;;;;;;5.97;5.42;;;;;;;19.49;78.37;98321.22;1719683;81;21101;-57
2021/09/18 06:45:13;;;;;;;6.87;4.85;;;;;;;19.50;78.18;98320.20;1720265;82;21033;-55
2021/09/18 06:47:40;;;;;;;8.28;5.40;;;;;;;19.50;78.04;98313.89;1719147;82;21006;-54
2021/09/18 06:50:08;;;;;;;6.58;5.75;;;;;;;19.51;78.01;98320.55;1720508;81;21047;-54
2021/09/18 06:52:35;;;;;;;6.47;5.22;;;;;;;19.54;77.92;98315.28;1673973;84;21039;-55
2021/09/18 06:55:03;;;;;;;6.78;4.97;;;;;;;19.54;77.97;98313.92;1719141;82;21108;-55
2021/09/18 06:57:32;;;;;;;5.37;4.47;;;;;;;19.55;77.96;98319.22;1720884;82;21010;-54
2021/09/18 06:59:59;;;;;;;7.28;5.47;;;;;;;19.56;77.90;98314.63;1724115;81;21347;-55
2021/09/18 07:02:25;;;;;;;6.53;5.70;;;;;;;19.56;77.69;98311.35;1646155;85;22102;-54
2021/09/18 07:04:51;;;;;;;7.40;6.78;;;;;;;19.55;77.55;98309.67;1718824;82;21089;-55
2021/09/18 07:07:18;;;;;;;6.80;6.12;;;;;;;19.56;77.32;98305.89;1726029;82;21149;-55
2021/09/18 07:09:44;;;;;;;5.72;5.15;;;;;;;19.57;77.12;98314.43;1664010;83;21034;-55
2021/09/18 07:12:11;;;;;;;5.12;4.72;;;;;;;19.57;77.03;98313.58;1721687;82;21049;-56
2021/09/18 07:14:37;;;;;;;5.47;3.72;;;;;;;19.57;76.73;98314.43;1722793;82;21125;-55
2021/09/18 07:17:05;;;;;;;7.83;4.45;;;;;;;19.53;76.58;98308.97;1663469;83;21046;-55
2021/09/18 07:19:32;;;;;;;5.42;3.80;;;;;;;19.51;76.44;98306.91;1721523;82;21106;-54
2021/09/18 07:21:59;;;;;;;6.60;4.15;;;;;;;19.51;76.13;98313.73;1721968;82;21082;-54
2021/09/18 07:24:26;;;;;;;6.70;3.37;;;;;;;19.47;75.87;98315.10;1662628;83;21095;-54
2021/09/18 07:26:53;;;;;;;5.22;3.42;;;;;;;19.45;75.80;98323.92;1722662;82;20943;-54
2021/09/18 07:29:19;;;;;;;2.20;2.00;;;;;;;19.44;75.62;98318.63;1726781;81;21097;-54
2021/09/18 07:31:46;;;;;;;3.25;0.90;;;;;;;19.42;75.46;98319.28;1721478;82;22124;-55
2021/09/18 07:34:12;;;;;;;1.10;0.90;;;;;;;19.43;74.81;98327.82;1721347;82;20991;-55
2021/09/18 07:36:38;;;;;;;1.27;1.05;;;;;;;19.44;74.34;98326.30;1722602;82;21689;-55
2021/09/18 07:39:05;;;;;;;1.92;0.93;;;;;;;19.48;74.00;98325.51;1726379;81;22268;-55
2021/09/18 07:41:31;;;;;;;1.20;1.10;;;;;;;19.53;73.85;98325.34;1724552;82;21090;-55
2021/09/18 07:44:01;;;;;;;1.55;0.90;;;;;;;19.60;73.51;98330.99;1719309;82;21705;-54
2021/09/18 07:46:28;;;;;;;1.27;0.80;;;;;;;19.65;73.05;98325.38;1729658;82;21504;-54
2021/09/18 07:48:55;;;;;;;0.60;0.60;;;;;;;19.70;72.39;98332.23;1662197;83;21476;-54
2021/09/18 07:51:21;;;;;;;1.07;0.60;;;;;;;19.73;71.85;98337.37;1723395;82;21511;-54
2021/09/18 07:53:48;;;;;;;1.25;0.70;;;;;;;19.75;71.06;98327.11;1720530;82;21080;-55
2021/09/18 07:56:16;;;;;;;0.70;0.70;;;;;;;19.74;70.67;98334.95;1663240;83;21543;-54
2021/09/18 07:58:42;;;;;;;0.70;0.70;;;;;;;19.73;70.20;98334.64;1721303;82;21540;-55
2021/09/18 08:01:08;;;;;;;0.70;0.70;;;;;;;19.71;69.94;98340.25;1659538;83;21058;-54
2021/09/18 08:03:35;;;;;;;0.60;0.60;;;;;;;19.69;70.01;98340.92;1727061;82;21066;-54
2021/09/18 08:06:01;;;;;;;0.60;0.60;;;;;;;19.64;69.82;98345.53;1725489;81;21042;-55
2021/09/18 08:08:27;;;;;;;0.55;0.55;;;;;;;19.60;69.82;98347.37;1732791;81;21713;-55
2021/09/18 08:10:55;;;;;;;0.50;0.40;;;;;;;19.57;69.82;98343.09;1731128;82;21022;-54
2021/09/18 08:13:21;;;;;;;0.40;0.40;;;;;;;19.55;69.83;98338.84;1670631;83;21058;-54
2021/09/18 08:15:47;;;;;;;0.45;0.45;;;;;;;19.56;70.01;98341.91;1725962;81;21041;-55
2021/09/18 08:18:14;;;;;;;0.78;0.50;;;;;;;19.56;70.00;98345.47;1729696;81;21037;-55
2021/09/18 08:20:42;;;;;;;1.55;0.60;;;;;;;19.55;69.95;98341.05;1729627;81;21096;-55
2021/09/18 08:23:10;;;;;;;0.50;0.50;;;;;;;19.55;69.94;98343.78;1693410;83;21094;-54
2021/09/18 08:25:36;;;;;;;0.50;0.50;;;;;;;19.55;69.94;98347.02;1692001;83;21344;-54
2021/09/18 08:28:04;;;;;;;0.50;0.50;;;;;;;19.55;70.17;98347.02;1733094;81;21037;-54
2021/09/18 08:30:30;;;;;;;0.50;0.50;;;;;;;19.56;70.20;98350.09;1737414;81;20962;-56
2021/09/18 08:32:57;;;;;;;0.78;0.40;;;;;;;19.57;70.18;98344.45;1738719;80;21662;-55
2021/09/18 08:35:24;;;;;;;0.30;0.30;;;;;;;19.58;70.32;98349.41;1685396;83;21519;-55
2021/09/18 08:37:50;;;;;;;0.50;0.50;;;;;;;19.60;70.41;98351.47;1735681;81;21335;-55
2021/09/18 08:40:16;;;;;;;2.47;0.50;;;;;;;19.59;70.34;98356.06;1730187;81;21032;-55
2021/09/18 08:42:43;;;;;;;1.40;0.55;;;;;;;19.60;70.40;98353.69;1727191;81;21261;-54
2021/09/18 08:45:12;;;;;;;1.22;0.70;;;;;;;19.58;70.32;98350.77;1725899;81;21867;-54
2021/09/18 08:47:41;;;;;;;0.70;0.70;;;;;;;19.55;70.46;98357.94;1722194;82;21034;-54
2021/09/18 08:50:14;;;;;;;0.50;0.50;;;;;;;19.49;70.56;98366.25;1731885;80;20864;-54
2021/09/18 08:52:41;;;;;;;0.60;0.40;;;;;;;19.42;70.77;98367.89;1708735;80;20930;-54
2021/09/18 08:55:09;;;;;;;0.72;0.40;;;;;;;19.35;71.11;98370.08;1732582;81;20943;-55
2021/09/18 08:57:35;;;;;;;0.40;0.40;;;;;;;19.28;71.64;98372.61;1727066;82;21107;-55
2021/09/18 09:00:03;;;;;;;0.40;0.40;;;;;;;19.20;72.13;98380.23;1730076;81;21006;-56
2021/09/18 09:02:30;;;;;;;0.57;0.30;;;;;;;19.13;72.71;98388.72;1729011;81;21312;-55
2021/09/18 09:05:05;;;;;;;0.30;0.30;;;;;;;19.06;73.01;98383.53;1672022;83;21453;-55
2021/09/18 09:07:32;;;;;;;0.20;0.20;;;;;;;18.98;73.04;98390.80;1681356;83;20981;-56
2021/09/18 09:10:02;;;;;;;0.20;0.20;;;;;;;18.89;73.24;98389.38;1670922;83;22305;-56
2021/09/18 09:12:35;;;;;;;0.30;0.30;;;;;;;18.79;73.36;98396.83;1700346;83;20961;-56
2021/09/18 09:18:24;;;;;;;0.37;0.25;;;;;;;18.66;73.66;98390.91;1793080;78;29086;-54
2021/09/18 09:21:11;;;;;;;2.67;0.20;;;;;;;18.56;73.54;98393.34;1763907;79;20973;-57
2021/09/18 09:23:39;;;;;;;0.88;0.23;;;;;;;18.49;73.36;98400.78;1771251;79;22095;-57
2021/09/18 09:26:05;;;;;;;0.40;0.20;;;;;;;18.41;73.26;98391.67;1769067;78;21238;-57
2021/09/18 09:28:36;;;;;;;0.62;0.20;;;;;;;18.35;73.47;98398.62;1765410;79;21825;-57
2021/09/18 09:31:25;;;;;;;2.25;0.20;;;;;;;18.35;73.69;98400.48;1763531;79;21132;-56
2021/09/18 09:34:02;;;;;;;0.20;0.20;;;;;;;18.33;73.65;98406.58;1749557;80;20928;-56
2021/09/18 09:36:30;;;;;;;0.25;0.20;;;;;;;18.29;73.46;98411.47;1751744;80;21910;-57
2021/09/18 09:38:59;;;;;;;0.23;0.10;;;;;;;18.24;73.21;98413.81;1756163;80;20958;-57
2021/09/18 09:41:48;;;;;;;0.10;0.10;;;;;;;18.22;73.23;98416.33;1756000;80;21056;-56
2021/09/18 09:44:17;;;;;;;1.17;0.10;;;;;;;18.18;73.21;98419.03;1725358;80;21387;-56
2021/09/18 09:47:08;;;;;;;0.20;0.15;;;;;;;18.15;73.21;98416.95;1716944;81;20994;-57
2021/09/18 09:49:48;;;;;;;0.30;0.17;;;;;;;18.15;73.24;98423.77;1672447;81;23338;-55
2021/09/18 09:52:32;;;;;;;0.33;0.20;;;;;;;18.15;73.22;98433.30;1715910;81;21725;-56
2021/09/18 09:55:13;;;;;;;0.20;0.20;;;;;;;18.12;73.05;98430.02;1694371;83;21514;-56
2021/09/18 09:57:41;;;;;;;0.50;0.20;;;;;;;18.09;73.04;98442.09;1699369;82;21088;-56
2021/09/18 10:00:14;;;;;;;1.77;0.30;;;;;;;18.07;72.88;98446.82;1703635;82;21539;-55
2021/09/18 10:02:42;;;;;;;0.30;0.30;;;;;;;18.04;72.36;98443.03;1696786;82;21093;-56
2021/09/18 10:05:11;;;;;;;0.30;0.30;;;;;;;18.00;72.00;98437.55;1702319;82;21550;-55
2021/09/18 10:07:38;;;;;;;3.02;0.30;;;;;;;17.96;71.66;98443.44;1698181;82;21100;-56
2021/09/18 10:10:08;;;;;;;0.25;0.23;;;;;;;17.89;71.70;98444.55;1697952;82;21141;-56
2021/09/18 10:12:35;;;;;;;0.88;0.20;;;;;;;17.85;71.72;98446.39;1700030;82;20934;-56
2021/09/18 10:15:05;;;;;;;0.98;0.28;;;;;;;17.84;71.69;98446.89;1699453;82;21469;-55
2021/09/18 10:17:33;;;;;;;0.30;0.20;;;;;;;17.80;71.56;98453.63;1681213;82;21400;-56
2021/09/18 10:20:08;;;;;;;4.80;0.30;;;;;;;17.73;71.63;98452.02;1677840;83;20994;-56
2021/09/18 10:25:23;;;;;;;0.40;0.28;;;;;;;17.67;71.70;98451.77;1674229;84;21070;-56
2021/09/18 10:28:12;;;;;;;0.10;0.10;;;;;;;17.61;71.75;98457.25;1676492;84;21694;-56
2021/09/18 10:30:45;;;;;;;0.33;0.20;;;;;;;17.56;71.86;98458.22;1716221;81;22227;-56
2021/09/18 10:33:36;;;;;;;0.13;0.10;;;;;;;17.53;71.84;98461.72;1679162;83;24763;-56
2021/09/18 10:36:17;;;;;;;0.85;0.10;;;;;;;17.48;71.68;98466.77;1686878;83;21548;-56
2021/09/18 10:38:54;;;;;;;1.57;0.10;;;;;;;17.45;71.68;98464.33;1728025;81;20883;-54
2021/09/18 10:41:28;;;;;;;0.20;0.20;;;;;;;17.45;71.80;98462.97;1681347;83;21302;-56
2021/09/18 10:43:56;;;;;;;0.68;0.20;;;;;;;17.47;71.42;98460.97;1719270;81;21594;-56
2021/09/18 10:46:54;;;;;;;0.10;0.10;;;;;;;17.48;71.12;98462.19;1719669;81;21541;-56
2021/09/18 10:49:37;;;;;;;0.20;0.10;;;;;;;17.52;70.83;98466.84;1671824;83;21092;-56
2021/09/18 10:52:32;;;;;;;0.78;0.10;;;;;;;17.51;70.01;98467.84;1681203;83;20911;-56
2021/09/18 10:55:10;;;;;;;0.28;0.20;;;;;;;17.46;69.54;98472.35;1719901;81;21070;-55
2021/09/18 10:57:48;;;;;;;0.40;0.40;;;;;;;17.39;69.21;98472.09;1715552;81;21376;-55
2021/09/18 11:00:23;;;;;;;1.00;0.10;;;;;;;17.34;68.64;98475.77;1713460;81;21425;-55
2021/09/18 11:02:55;;;;;;;0.20;0.20;;;;;;;17.28;68.25;98476.33;1682089;83;21057;-55
2021/09/18 11:05:41;;;;;;;1.05;0.20;;;;;;;17.27;68.08;98475.97;1716688;82;21500;-56
2021/09/18 11:08:19;;;;;;;1.65;0.13;;;;;;;17.27;67.89;98484.13;1715769;82;21557;-56
2021/09/18 11:11:05;;;;;;;0.13;0.13;;;;;;;17.27;67.65;98478.69;1716507;81;21654;-56
2021/09/18 11:13:40;;;;;;;1.52;0.20;;;;;;;17.29;67.41;98485.35;1715399;81;21092;-56
2021/09/18 11:16:24;;;;;;;1.57;0.20;;;;;;;17.30;67.46;98488.43;1680183;83;21420;-56
2021/09/18 11:18:59;;;;;;;0.10;0.10;;;;;;;17.33;67.45;98490.87;1722108;81;20989;-55
2021/09/18 11:21:35;;;;;;;0.20;0.20;;;;;;;17.34;67.15;98492.59;1720680;81;21445;-55
2021/09/18 11:24:17;;;;;;;;;;;;;;;17.34;67.19;98493.95;1724507;81;21020;-55
2021/09/18 11:26:51;;;;;;;1.25;0.20;;;;;;;17.36;67.20;98495.49;1716221;82;20316;-55
2021/09/18 11:29:28;;;;;;;;;;;;;;;17.36;67.11;98506.87;1722338;81;22466;-56
2021/09/18 11:32:13;;;;;;;0.82;0.20;;;;;;;17.35;67.12;98503.30;1715195;81;20497;-56
2021/09/18 11:34:47;;;;;;;0.20;0.20;;;;;;;17.33;67.13;98510.77;1720895;81;22649;-56
2021/09/18 11:37:29;;;;;;;0.20;0.20;;;;;;;17.31;67.10;98510.05;1687507;83;21500;-56
2021/09/18 11:40:01;;;;;;;0.30;0.30;;;;;;;17.26;66.74;98511.50;1686305;83;20957;-56
2021/09/18 11:42:33;;;;;;;0.20;0.20;;;;;;;17.18;66.83;98502.69;1675096;84;21616;-55
2021/09/18 11:45:06;;;;;;;0.10;0.10;;;;;;;17.16;66.99;98506.58;1674055;84;20947;-56
2021/09/18 11:47:40;;;;;;;1.20;0.20;;;;;;;17.09;66.64;98513.10;1678722;84;21507;-56